Time;durP1;ratioP1;P1;durP2;ratioP2;P2;SDS_P1;SDS_P2;PMS_P1;PMS_P2;Temp;Humidity;BMP_temperature;BMP_pressure;BME280_temperature;BME280_humidity;BME280_pressure;Samples;Min_cycle;Max_cycle;Signal;HPM_P1;HPM_P2
2022/07/20 00:01:16;;;;;;;16.73;8.20;;;22.80;99.90;;;;;;5075480;28;20753;-55
2022/07/20 00:03:42;;;;;;;9.98;4.68;;;22.70;99.90;;;;;;5071738;28;20383;-57
2022/07/20 00:06:08;;;;;;;10.97;5.80;;;22.40;99.90;;;;;;5071954;28;20472;-54
2022/07/20 00:11:21;;;;;;;11.98;5.18;;;22.00;99.90;;;;;;5087886;28;20508;-54
2022/07/20 00:13:52;;;;;;;10.45;5.50;;;21.80;99.90;;;;;;5091337;28;20926;-63
2022/07/20 00:16:23;;;;;;;11.93;6.30;;;21.80;99.90;;;;;;5075281;28;20465;-54
2022/07/20 00:18:48;;;;;;;11.35;5.20;;;21.90;99.90;;;;;;5070728;28;20764;-52
2022/07/20 00:21:14;;;;;;;10.43;5.10;;;22.00;99.90;;;;;;5087248;28;20398;-54
2022/07/20 00:23:40;;;;;;;13.48;5.50;;;22.30;99.90;;;;;;5091852;28;20747;-54
2022/07/20 00:26:07;;;;;;;15.77;6.22;;;22.40;99.90;;;;;;5075305;28;20469;-54
2022/07/20 00:28:33;;;;;;;13.27;5.90;;;22.40;99.90;;;;;;5071377;28;20931;-56
2022/07/20 00:30:59;;;;;;;13.05;5.72;;;22.50;99.90;;;;;;5084355;28;20394;-55
2022/07/20 00:33:24;;;;;;;12.95;5.40;;;22.60;99.90;;;;;;5091108;28;20490;-54
2022/07/20 00:35:50;;;;;;;16.17;5.40;;;22.70;99.90;;;;;;5077611;28;20549;-54
2022/07/20 00:38:16;;;;;;;11.20;5.50;;;22.70;99.90;;;;;;5071276;28;20455;-54
2022/07/20 00:40:42;;;;;;;11.30;5.50;;;22.60;99.90;;;;;;5072161;28;20932;-51
2022/07/20 00:43:08;;;;;;;11.80;5.13;;;22.30;99.90;;;;;;5070010;28;20479;-51
2022/07/20 00:45:33;;;;;;;11.57;5.33;;;22.00;99.90;;;;;;5083178;28;20546;-52
2022/07/20 00:47:59;;;;;;;11.83;5.60;;;21.80;99.90;;;;;;5090702;28;20410;-51
2022/07/20 00:50:25;;;;;;;12.65;5.80;;;21.70;99.90;;;;;;5089198;28;20477;-51
2022/07/20 00:52:51;;;;;;;11.57;5.60;;;21.80;99.90;;;;;;5090544;28;20459;-52
2022/07/20 00:55:17;;;;;;;11.40;6.60;;;22.00;99.90;;;;;;5079110;28;20969;-52
2022/07/20 00:57:43;;;;;;;14.50;6.60;;;22.10;99.90;;;;;;5069277;28;20407;-52
2022/07/20 01:00:10;;;;;;;12.47;6.40;;;22.10;99.90;;;;;;5071007;28;20396;-51
2022/07/20 01:02:36;;;;;;;13.10;6.57;;;21.90;99.90;;;;;;5070554;28;20437;-54
2022/07/20 01:05:02;;;;;;;11.18;6.15;;;21.80;99.90;;;;;;5079542;28;20410;-51
2022/07/20 01:07:28;;;;;;;14.93;6.68;;;21.50;99.90;;;;;;5090518;28;20386;-52
2022/07/20 01:09:54;;;;;;;14.18;6.38;;;21.20;99.90;;;;;;5088001;28;20390;-51
2022/07/20 01:12:20;;;;;;;12.40;6.30;;;21.10;99.90;;;;;;5087133;28;20455;-51
2022/07/20 01:14:45;;;;;;;11.35;5.90;;;21.10;99.90;;;;;;5090699;28;20840;-60
2022/07/20 01:17:11;;;;;;;13.13;6.40;;;20.80;99.90;;;;;;5088258;28;20405;-52
2022/07/20 01:19:37;;;;;;;11.60;6.60;;;20.90;99.90;;;;;;5089306;28;20789;-54
2022/07/20 01:22:03;;;;;;;15.77;7.78;;;20.80;99.90;;;;;;5083556;28;20392;-54
2022/07/20 01:24:29;;;;;;;11.70;7.25;;;20.60;99.90;;;;;;5070106;28;20460;-55
2022/07/20 01:26:55;;;;;;;11.65;6.68;;;20.70;99.90;;;;;;5073750;28;20466;-54
2022/07/20 01:29:21;;;;;;;15.43;7.70;;;20.70;99.90;;;;;;5090434;28;20843;-52
2022/07/20 01:31:46;;;;;;;13.77;7.53;;;20.80;99.90;;;;;;5081616;28;20473;-62
2022/07/20 01:34:12;;;;;;;15.07;7.03;;;20.80;99.90;;;;;;5070283;28;20384;-55
2022/07/20 01:36:38;;;;;;;15.77;7.93;;;20.90;99.90;;;;;;5070164;28;20491;-54
2022/07/20 01:39:03;;;;;;;14.27;7.17;;;20.90;99.90;;;;;;5069376;28;20375;-52
2022/07/20 01:41:29;;;;;;;13.70;7.67;;;21.00;99.90;;;;;;5075406;28;20390;-54
2022/07/20 01:43:54;;;;;;;13.10;7.23;;;21.20;99.90;;;;;;5089471;28;20374;-52
2022/07/20 01:46:20;;;;;;;15.53;7.83;;;21.20;1.00;;;;;;5086615;28;20453;-54
2022/07/20 01:48:46;;;;;;;13.93;6.93;;;21.20;1.00;;;;;;5079566;28;20460;-62
2022/07/20 01:51:11;;;;;;;13.48;7.43;;;21.10;99.90;;;;;;5089553;28;20374;-54
2022/07/20 01:53:37;;;;;;;13.63;6.68;;;21.00;99.90;;;;;;5089953;28;20814;-54
2022/07/20 01:56:03;;;;;;;12.65;7.18;;;20.90;99.90;;;;;;5088773;28;20390;-54
2022/07/20 01:58:28;;;;;;;12.18;7.30;;;20.90;99.90;;;;;;5090066;28;20469;-52
2022/07/20 02:00:54;;;;;;;14.30;6.83;;;20.80;99.90;;;;;;5087333;28;20405;-54
2022/07/20 02:03:20;;;;;;;12.77;7.30;;;20.70;99.90;;;;;;5089895;28;20855;-53
2022/07/20 02:05:46;;;;;;;11.23;6.60;;;20.50;99.90;;;;;;5087690;28;20833;-54
2022/07/20 02:08:12;;;;;;;12.88;6.30;;;20.30;1.00;;;;;;5069259;28;20433;-54
2022/07/20 02:10:38;;;;;;;12.25;6.00;;;20.40;1.00;;;;;;5073239;28;20390;-52
2022/07/20 02:13:03;;;;;;;12.50;6.00;;;20.40;99.90;;;;;;5068840;28;20462;-54
2022/07/20 02:18:13;;;;;;;13.70;6.10;;;20.40;99.90;;;;;;5069496;28;20378;-56
2022/07/20 02:20:40;;;;;;;15.67;7.87;;;20.40;99.90;;;;;;5073964;28;20821;-54
2022/07/20 02:23:08;;;;;;;12.68;7.25;;;20.50;99.90;;;;;;5072871;28;20411;-53
2022/07/20 02:25:36;;;;;;;13.57;6.45;;;20.50;99.90;;;;;;5072907;28;20423;-54
2022/07/20 02:28:03;;;;;;;12.20;7.20;;;20.50;99.90;;;;;;5072053;28;20808;-54
2022/07/20 02:30:28;;;;;;;14.45;7.70;;;20.50;99.90;;;;;;5076673;28;20396;-55
2022/07/20 02:32:54;;;;;;;13.15;7.80;;;20.60;99.90;;;;;;5093138;28;20885;-55
2022/07/20 02:35:20;;;;;;;15.80;7.03;;;20.60;99.90;;;;;;5091067;28;20407;-52
2022/07/20 02:37:45;;;;;;;14.33;7.30;;;20.50;99.90;;;;;;5073406;28;20537;-52
2022/07/20 02:40:11;;;;;;;13.00;7.77;;;20.50;99.90;;;;;;5073531;28;20387;-52
2022/07/20 02:42:37;;;;;;;11.02;7.55;;;20.40;99.90;;;;;;5093787;28;20385;-54
2022/07/20 02:45:03;;;;;;;12.00;7.15;;;20.40;99.90;;;;;;5083485;28;20423;-55
2022/07/20 02:47:28;;;;;;;14.35;7.43;;;20.50;99.90;;;;;;5073294;28;20857;-58
2022/07/20 02:49:54;;;;;;;15.70;8.00;;;20.60;99.90;;;;;;5073729;28;20524;-54
2022/07/20 02:52:19;;;;;;;15.67;7.57;;;20.60;99.90;;;;;;5078059;28;20820;-53
2022/07/20 02:54:45;;;;;;;14.43;7.10;;;20.70;99.90;;;;;;5081965;28;20443;-53
2022/07/20 02:57:10;;;;;;;15.25;7.57;;;20.70;99.90;;;;;;5088025;28;21261;-55
2022/07/20 02:59:36;;;;;;;13.50;6.50;;;20.70;99.90;;;;;;5092782;28;20378;-55
2022/07/20 03:02:02;;;;;;;11.77;6.55;;;20.70;99.90;;;;;;5072155;28;20376;-52
2022/07/20 03:04:27;;;;;;;14.48;6.70;;;20.70;99.90;;;;;;5074422;28;20408;-52
2022/07/20 03:06:53;;;;;;;12.83;6.63;;;20.60;99.90;;;;;;5072367;28;20387;-52
2022/07/20 03:09:19;;;;;;;12.83;6.70;;;20.50;99.90;;;;;;5073076;28;20376;-53
2022/07/20 03:11:44;;;;;;;13.20;6.20;;;20.20;99.90;;;;;;5074777;28;20482;-52
2022/07/20 03:14:10;;;;;;;12.70;6.40;;;20.10;99.90;;;;;;5078160;28;20479;-52
2022/07/20 03:16:35;;;;;;;11.10;6.20;;;20.10;99.90;;;;;;5083409;28;20386;-52
2022/07/20 03:19:01;;;;;;;11.38;6.10;;;20.10;1.00;;;;;;5080026;28;20390;-52
2022/07/20 03:21:26;;;;;;;14.63;7.18;;;20.10;1.00;;;;;;5076091;28;20859;-52
2022/07/20 03:23:52;;;;;;;14.32;7.35;;;20.10;99.90;;;;;;5080949;28;20859;-56
2022/07/20 03:26:19;;;;;;;16.30;6.82;;;20.10;99.90;;;;;;5090735;28;20418;-53
2022/07/20 03:28:45;;;;;;;15.40;6.90;;;20.10;99.90;;;;;;5084789;28;20401;-52
2022/07/20 03:31:11;;;;;;;14.10;7.80;;;19.90;99.90;;;;;;5080979;28;20391;-52
2022/07/20 03:33:37;;;;;;;12.43;7.00;;;19.90;99.90;;;;;;5072042;28;20384;-52
2022/07/20 03:36:03;;;;;;;13.50;7.70;;;20.00;99.90;;;;;;5071937;28;20518;-58
2022/07/20 03:38:29;;;;;;;15.07;7.20;;;20.10;99.90;;;;;;5087133;28;20395;-52
2022/07/20 03:40:54;;;;;;;15.55;7.50;;;19.70;1.00;;;;;;5084730;28;20389;-52
2022/07/20 03:43:21;;;;;;;14.98;6.75;;;19.60;1.00;;;;;;5092486;28;20389;-52
2022/07/20 03:45:47;;;;;;;13.07;7.13;;;19.70;99.90;;;;;;5080376;28;20500;-58
2022/07/20 03:48:13;;;;;;;16.30;7.65;;;19.70;1.00;;;;;;5071952;28;20430;-56
2022/07/20 03:50:38;;;;;;;13.98;7.32;;;19.90;99.90;;;;;;5086879;28;20473;-52
2022/07/20 03:53:04;;;;;;;16.80;7.63;;;20.10;99.90;;;;;;5076265;28;20382;-52
2022/07/20 03:55:30;;;;;;;14.17;8.13;;;20.10;1.00;;;;;;5091288;28;20885;-52
2022/07/20 03:57:55;;;;;;;11.53;6.70;;;20.20;1.00;;;;;;5091464;28;20397;-52
2022/07/20 04:00:21;;;;;;;12.83;6.93;;;20.30;1.00;;;;;;5090129;28;20523;-52
2022/07/20 04:02:47;;;;;;;12.95;7.70;;;20.40;1.00;;;;;;5091963;28;20421;-52
2022/07/20 04:05:12;;;;;;;14.10;8.02;;;20.40;1.00;;;;;;5074936;28;20437;-52
2022/07/20 04:07:38;;;;;;;12.05;7.20;;;20.50;1.00;;;;;;5078064;28;20394;-52
2022/07/20 04:10:04;;;;;;;15.10;7.23;;;20.70;1.00;;;;;;5084895;28;20422;-56
2022/07/20 04:12:29;;;;;;;13.10;7.40;;;20.60;1.00;;;;;;5081322;28;20426;-55
2022/07/20 04:14:55;;;;;;;12.05;6.90;;;20.60;1.00;;;;;;5081455;28;20472;-56
2022/07/20 04:17:22;;;;;;;12.80;7.53;;;20.80;1.00;;;;;;5080088;28;20391;-55
2022/07/20 04:19:48;;;;;;;15.75;7.10;;;20.90;1.00;;;;;;5080668;28;20390;-56
2022/07/20 04:22:14;;;;;;;16.65;7.15;;;20.90;1.00;;;;;;5081467;28;20376;-55
2022/07/20 04:24:40;;;;;;;13.63;7.30;;;20.90;1.00;;;;;;5079494;28;20920;-55
2022/07/20 04:27:06;;;;;;;14.43;7.53;;;20.80;1.00;;;;;;5079869;28;20415;-55
2022/07/20 04:29:32;;;;;;;16.50;8.43;;;20.80;1.00;;;;;;5080592;28;20410;-55
2022/07/20 04:31:57;;;;;;;14.23;7.70;;;20.80;1.00;;;;;;5080965;28;20378;-55
2022/07/20 04:34:23;;;;;;;14.07;7.77;;;20.90;1.00;;;;;;5080059;28;20739;-55
2022/07/20 04:36:49;;;;;;;14.95;7.63;;;20.90;1.00;;;;;;5081086;28;20837;-57
2022/07/20 04:39:15;;;;;;;13.60;7.60;;;21.00;1.00;;;;;;5080217;28;20405;-55
2022/07/20 04:41:41;;;;;;;13.98;7.70;;;21.00;1.00;;;;;;5079229;28;20396;-55
2022/07/20 04:44:07;;;;;;;15.55;7.70;;;21.10;1.00;;;;;;5079712;28;20499;-56
2022/07/20 04:46:33;;;;;;;16.20;8.40;;;21.20;1.00;;;;;;5078242;28;20383;-56
2022/07/20 04:49:00;;;;;;;14.88;8.13;;;21.30;1.00;;;;;;5069913;28;20852;-55
2022/07/20 04:51:25;;;;;;;14.40;7.93;;;21.50;1.00;;;;;;5087866;28;20388;-55
2022/07/20 04:53:51;;;;;;;14.63;7.80;;;21.50;1.00;;;;;;5076118;28;20395;-57
2022/07/20 04:56:18;;;;;;;14.40;8.20;;;21.60;1.00;;;;;;5070081;28;20383;-55
2022/07/20 04:58:50;;;;;;;14.23;7.90;;;21.70;1.00;;;;;;5083484;28;20402;-55
2022/07/20 05:01:16;;;;;;;17.40;8.73;;;22.00;1.00;;;;;;5088399;28;20448;-55
2022/07/20 05:03:42;;;;;;;17.10;8.88;;;22.30;1.00;;;;;;5089361;28;20439;-56
2022/07/20 05:06:08;;;;;;;14.53;8.80;;;23.10;1.00;;;;;;5090046;28;20420;-58
2022/07/20 05:08:33;;;;;;;17.70;9.23;;;24.30;1.00;;;;;;5087372;28;20390;-56
2022/07/20 05:10:59;;;;;;;18.13;9.30;;;25.50;1.00;;;;;;5088221;28;20476;-56
2022/07/20 05:13:25;;;;;;;17.10;8.40;;;26.80;1.00;;;;;;5080421;28;20384;-56
2022/07/20 05:15:50;;;;;;;18.27;8.90;;;28.00;1.00;;;;;;5070189;28;20437;-58
2022/07/20 05:18:16;;;;;;;15.00;8.63;;;28.70;1.00;;;;;;5070740;28;20404;-56
2022/07/20 05:20:41;;;;;;;16.07;9.13;;;29.10;1.00;;;;;;5070311;28;20437;-56
2022/07/20 05:23:07;;;;;;;16.30;9.60;;;29.60;1.00;;;;;;5070542;28;20402;-56
2022/07/20 05:25:33;;;;;;;15.02;8.93;;;30.10;99.90;;;;;;5070036;28;20415;-56
2022/07/20 05:27:59;;;;;;;16.35;8.52;;;30.40;99.90;;;;;;5086528;28;20406;-56
2022/07/20 05:30:24;;;;;;;13.65;8.50;;;30.80;99.90;;;;;;5090217;28;20386;-56
2022/07/20 05:32:50;;;;;;;14.65;8.93;;;30.90;99.90;;;;;;5073458;28;20384;-57
2022/07/20 05:35:15;;;;;;;16.57;9.20;;;31.70;99.90;;;;;;5070815;28;20384;-55
2022/07/20 05:37:41;;;;;;;18.23;8.80;;;32.30;1.00;;;;;;5070999;28;20864;-55
2022/07/20 05:40:07;;;;;;;15.60;8.60;;;32.50;1.00;;;;;;5069086;28;20376;-58
2022/07/20 05:42:33;;;;;;;16.40;8.80;;;32.70;1.00;;;;;;5090094;28;20385;-57
2022/07/20 05:44:58;;;;;;;13.55;8.18;;;32.90;1.00;;;;;;5088578;28;20417;-57
2022/07/20 05:47:24;;;;;;;12.23;8.50;;;33.20;1.00;;;;;;5089317;28;20465;-57
2022/07/20 05:49:50;;;;;;;12.50;8.03;;;32.90;1.00;;;;;;5077908;28;20469;-58
2022/07/20 05:52:16;;;;;;;12.97;7.93;;;32.70;1.00;;;;;;5088052;28;20443;-57
2022/07/20 05:54:42;;;;;;;15.90;8.15;;;32.60;1.00;;;;;;5085696;28;20565;-58
2022/07/20 05:57:07;;;;;;;11.53;8.07;;;33.10;1.00;;;;;;5069021;28;20892;-57
2022/07/20 05:59:33;;;;;;;13.87;8.47;;;33.10;1.00;;;;;;5082433;28;20394;-57
2022/07/20 06:01:58;;;;;;;13.50;8.32;;;33.40;1.00;;;;;;5083088;28;20400;-57
2022/07/20 06:04:24;;;;;;;11.07;7.47;;;33.30;1.00;;;;;;5082180;28;20394;-57
2022/07/20 06:06:50;;;;;;;11.70;7.70;;;33.30;1.00;;;;;;5082342;28;20408;-57
2022/07/20 06:09:15;;;;;;;11.90;8.32;;;33.40;1.00;;;;;;5080866;28;20394;-57
2022/07/20 06:11:41;;;;;;;13.68;9.60;;;33.60;1.00;;;;;;5089459;28;20837;-57
2022/07/20 06:14:06;;;;;;;12.83;8.30;;;34.20;1.00;;;;;;5086882;28;20756;-57
2022/07/20 06:16:33;;;;;;;12.70;8.53;;;;;;;;;;5089866;28;20858;-57
2022/07/20 06:18:59;;;;;;;13.73;8.70;;;;;;;;;;5081526;28;20387;-57
2022/07/20 06:21:25;;;;;;;13.60;8.23;;;;;;;;;;5070497;28;20857;-57
2022/07/20 06:23:51;;;;;;;13.40;7.70;;;;;;;;;;5072213;28;20432;-57
2022/07/20 06:26:17;;;;;;;12.52;8.90;;;;;;;;;;5068746;28;20442;-57
2022/07/20 06:28:42;;;;;;;11.40;8.70;;;35.00;99.90;;;;;;5089720;28;20394;-57
2022/07/20 06:31:08;;;;;;;11.03;8.20;;;35.80;99.90;;;;;;5084719;28;20385;-57
2022/07/20 06:33:33;;;;;;;11.75;8.18;;;36.10;99.90;;;;;;5083812;28;20902;-59
2022/07/20 06:36:01;;;;;;;10.60;7.73;;;35.50;99.90;;;;;;5075494;28;20386;-58
2022/07/20 06:38:26;;;;;;;11.80;8.50;;;35.30;99.90;;;;;;5078813;28;20401;-57
2022/07/20 06:40:52;;;;;;;12.23;6.33;;;36.20;99.90;;;;;;5072074;28;20380;-60
2022/07/20 06:43:17;;;;;;;14.95;6.18;;;36.70;99.90;;;;;;5068697;28;20380;-57
2022/07/20 06:45:43;;;;;;;12.70;7.57;;;36.80;99.90;;;;;;5069299;28;20416;-58
2022/07/20 06:48:09;;;;;;;11.60;5.60;;;37.80;99.90;;;;;;5068291;28;20384;-58
2022/07/20 06:50:34;;;;;;;14.85;5.93;;;37.10;99.90;;;;;;5069300;28;20384;-57
2022/07/20 06:53:00;;;;;;;11.10;6.20;;;36.70;99.90;;;;;;5068342;28;20380;-57
2022/07/20 06:55:25;;;;;;;10.88;6.03;;;37.80;99.90;;;;;;5069370;28;20407;-57
2022/07/20 06:57:51;;;;;;;15.90;11.00;;;38.00;99.90;;;;;;5068624;28;20453;-59
2022/07/20 07:00:17;;;;;;;13.25;9.18;;;37.80;1.00;;;;;;5068730;28;20463;-58
2022/07/20 07:02:42;;;;;;;15.20;8.27;;;37.70;1.00;;;;;;5069277;28;20395;-57
2022/07/20 07:05:09;;;;;;;10.07;8.00;;;37.60;1.00;;;;;;5070010;28;20431;-58
2022/07/20 07:07:35;;;;;;;12.65;8.85;;;37.80;1.00;;;;;;5080906;28;20378;-58
2022/07/20 07:10:00;;;;;;;13.40;8.77;;;37.10;1.00;;;;;;5074230;28;20390;-58
2022/07/20 07:12:26;;;;;;;10.90;7.80;;;37.70;1.00;;;;;;5072761;28;20379;-60
2022/07/20 07:14:52;;;;;;;12.07;6.93;;;38.50;1.00;;;;;;5072522;28;20858;-61
2022/07/20 07:17:18;;;;;;;9.77;5.87;;;38.90;99.90;;;;;;5075619;28;20386;-58
2022/07/20 07:19:43;;;;;;;11.50;7.80;;;39.40;99.90;;;;;;5092975;28;20547;-58
2022/07/20 07:22:09;;;;;;;16.33;8.20;;;39.80;99.90;;;;;;5091803;28;20910;-58
2022/07/20 07:24:35;;;;;;;12.53;9.57;;;40.90;99.90;;;;;;5092739;28;20778;-58
2022/07/20 07:27:02;;;;;;;11.90;6.80;;;41.50;99.90;;;;;;5091721;28;20444;-58
2022/07/20 07:29:27;;;;;;;12.20;7.20;;;41.40;99.90;;;;;;5092584;28;20401;-58
2022/07/20 07:31:58;;;;;;;12.50;6.80;;;41.50;99.90;;;;;;5079915;28;20392;-61
2022/07/20 07:34:27;;;;;;;11.82;6.50;;;42.00;99.90;;;;;;5072263;28;20407;-58
2022/07/20 07:36:53;;;;;;;16.58;8.32;;;42.60;99.90;;;;;;5071647;28;20733;-61
2022/07/20 07:39:19;;;;;;;12.27;6.40;;;43.50;99.90;;;;;;5072148;28;20372;-58
2022/07/20 07:41:45;;;;;;;13.20;7.30;;;43.70;99.90;;;;;;5075905;28;20384;-58
2022/07/20 07:44:10;;;;;;;14.57;7.90;;;43.40;99.90;;;;;;5071583;28;20384;-58
2022/07/20 07:46:36;;;;;;;13.67;7.20;;;43.60;99.90;;;;;;5073993;28;20436;-58
2022/07/20 07:49:03;;;;;;;13.82;6.82;;;43.60;99.90;;;;;;5091455;28;20374;-59
2022/07/20 07:51:29;;;;;;;12.60;6.88;;;43.60;99.90;;;;;;5089201;28;20382;-58
2022/07/20 07:53:55;;;;;;;12.87;6.83;;;43.40;99.90;;;;;;5087476;28;20436;-61
2022/07/20 07:56:22;;;;;;;17.20;6.90;;;42.70;99.90;;;;;;5087995;28;20429;-59
2022/07/20 07:58:48;;;;;;;12.80;7.00;;;42.20;99.90;;;;;;5083736;28;20453;-58
2022/07/20 08:01:13;;;;;;;14.10;11.20;;;42.60;99.90;;;;;;5079068;28;20386;-58
2022/07/20 08:03:39;;;;;;;13.38;7.70;;;43.40;99.90;;;;;;5089383;28;20467;-59
2022/07/20 08:06:05;;;;;;;14.57;11.07;;;44.00;99.90;;;;;;5090971;28;20408;-58
2022/07/20 08:08:31;;;;;;;14.70;8.70;;;44.20;99.90;;;;;;5091439;28;20708;-58
2022/07/20 08:10:57;;;;;;;12.32;7.75;;;44.10;99.90;;;;;;5091325;28;20378;-61
2022/07/20 08:13:23;;;;;;;13.63;8.32;;;44.10;99.90;;;;;;5091603;28;20403;-58
2022/07/20 08:15:49;;;;;;;13.80;8.23;;;44.90;99.90;;;;;;5090868;28;20755;-59
2022/07/20 08:18:14;;;;;;;13.98;8.95;;;44.20;99.90;;;;;;5090896;28;20375;-58
2022/07/20 08:20:40;;;;;;;13.60;10.63;;;45.00;99.90;;;;;;5090392;28;20424;-58
2022/07/20 08:23:05;;;;;;;12.63;8.67;;;45.00;99.90;;;;;;5090620;28;20378;-58
2022/07/20 08:25:32;;;;;;;12.80;8.73;;;44.20;99.90;;;;;;5091241;28;20410;-55
2022/07/20 08:28:12;;;;;;;13.50;10.10;;;44.50;99.90;;;;;;5090462;28;20470;-61
2022/07/20 08:30:39;;;;;;;12.73;8.90;;;45.60;99.90;;;;;;5091263;28;20412;-60
2022/07/20 08:33:06;;;;;;;12.82;10.52;;;45.20;99.90;;;;;;5072370;28;20386;-57
2022/07/20 08:35:32;;;;;;;14.27;8.55;;;45.20;99.90;;;;;;5091526;28;20378;-57
2022/07/20 08:37:58;;;;;;;13.90;9.60;;;45.90;99.90;;;;;;5090348;28;20385;-60
2022/07/20 08:40:25;;;;;;;15.77;11.73;;;46.20;99.90;;;;;;5091119;28;20855;-57
2022/07/20 08:42:51;;;;;;;10.63;8.00;;;47.00;99.90;;;;;;5091216;28;20381;-57
2022/07/20 08:45:16;;;;;;;12.23;7.03;;;46.30;99.90;;;;;;5090365;28;20406;-57
2022/07/20 08:47:44;;;;;;;11.13;6.63;;;45.60;99.90;;;;;;5090946;28;20388;-57
2022/07/20 08:50:10;;;;;;;12.32;6.82;;;44.70;99.90;;;;;;5090581;28;20809;-57
2022/07/20 08:52:36;;;;;;;13.55;7.25;;;43.80;99.90;;;;;;5091219;28;20374;-57
2022/07/20 08:55:03;;;;;;;13.40;7.33;;;45.00;99.90;;;;;;5090019;28;20407;-57
2022/07/20 08:57:31;;;;;;;11.63;6.80;;;45.60;99.90;;;;;;5091291;28;20938;-58
2022/07/20 08:59:57;;;;;;;11.47;6.23;;;45.60;99.90;;;;;;5090465;28;20417;-60
2022/07/20 09:02:22;;;;;;;11.63;6.47;;;45.30;99.90;;;;;;5090484;28;20382;-57
2022/07/20 09:04:49;;;;;;;11.07;6.40;;;45.10;99.90;;;;;;5090961;28;20398;-58
2022/07/20 09:07:15;;;;;;;12.38;6.90;;;46.80;99.90;;;;;;5089724;28;20376;-57
2022/07/20 09:09:41;;;;;;;12.17;6.50;;;46.80;99.90;;;;;;5090617;28;20385;-58
2022/07/20 09:12:07;;;;;;;16.52;7.53;;;47.20;99.90;;;;;;5090085;28;20370;-57
2022/07/20 09:14:48;;;;;;;14.23;6.47;;;47.90;99.90;;;;;;5090495;28;20439;-57
2022/07/20 09:17:25;;;;;;;13.10;6.25;;;46.80;99.90;;;;;;5089797;28;20388;-57
2022/07/20 09:20:07;;;;;;;10.30;6.60;;;46.90;99.90;;;;;;5090671;28;20439;-57
2022/07/20 09:22:37;;;;;;;13.45;8.50;;;47.90;99.90;;;;;;5090395;28;20393;-57
2022/07/20 09:25:09;;;;;;;16.88;6.97;;;48.50;99.90;;;;;;5089443;28;20408;-58
2022/07/20 09:27:36;;;;;;;12.85;11.18;;;47.00;99.90;;;;;;5089368;28;20732;-60
2022/07/20 09:30:09;;;;;;;14.25;9.10;;;44.70;99.90;;;;;;5089527;28;20881;-58
2022/07/20 09:32:50;;;;;;;11.18;6.80;;;44.30;99.90;;;;;;5090159;28;20381;-58
2022/07/20 09:35:15;;;;;;;13.13;7.30;;;44.30;99.90;;;;;;5089305;28;20394;-58
2022/07/20 09:37:41;;;;;;;11.80;7.20;;;43.30;99.90;;;;;;5090143;28;20392;-58
2022/07/20 09:40:07;;;;;;;11.60;6.90;;;43.60;99.90;;;;;;5089234;28;20378;-57
2022/07/20 09:42:41;;;;;;;11.20;6.93;;;43.80;99.90;;;;;;5090080;28;20894;-57
2022/07/20 09:45:21;;;;;;;15.87;13.40;;;44.00;99.90;;;;;;5089261;28;20878;-57
2022/07/20 09:48:12;;;;;;;13.35;11.13;;;42.60;99.90;;;;;;5090302;28;20469;-57
2022/07/20 09:50:39;;;;;;;13.77;12.07;;;42.00;99.90;;;;;;5089984;28;20378;-60
2022/07/20 09:53:06;;;;;;;13.43;11.18;;;43.00;99.90;;;;;;5089382;28;20374;-57
2022/07/20 09:55:33;;;;;;;11.75;10.55;;;42.80;99.90;;;;;;5089813;28;20450;-57
2022/07/20 09:58:00;;;;;;;12.48;11.23;;;42.80;99.90;;;;;;5088758;28;20440;-60
2022/07/20 10:00:26;;;;;;;11.90;10.40;;;43.60;99.90;;;;;;5089978;28;20390;-58
2022/07/20 10:02:53;;;;;;;12.77;7.00;;;45.30;99.90;;;;;;5089760;28;20935;-58
2022/07/20 10:05:21;;;;;;;11.23;7.13;;;46.20;99.90;;;;;;5089007;28;20467;-58
2022/07/20 10:07:47;;;;;;;9.90;7.60;;;45.70;99.90;;;;;;5089883;28;20504;-58
2022/07/20 10:10:14;;;;;;;11.17;7.40;;;46.50;99.90;;;;;;5088921;28;20457;-57
2022/07/20 10:12:40;;;;;;;11.77;6.55;;;47.00;99.90;;;;;;5089729;28;20381;-58
2022/07/20 10:15:15;;;;;;;12.73;7.00;;;47.10;99.90;;;;;;5089145;28;20393;-58
2022/07/20 10:17:43;;;;;;;14.20;7.13;;;46.20;99.90;;;;;;5089789;28;20873;-58
2022/07/20 10:20:31;;;;;;;14.13;12.73;;;44.90;99.90;;;;;;5088997;28;20370;-57
2022/07/20 10:23:14;;;;;;;11.20;9.50;;;43.70;99.90;;;;;;5089325;28;20375;-60
2022/07/20 10:25:45;;;;;;;15.30;11.88;;;42.80;99.90;;;;;;5089110;28;20882;-57
2022/07/20 10:28:23;;;;;;;11.00;9.88;;;42.40;99.90;;;;;;5088432;28;20945;-57
2022/07/20 10:31:04;;;;;;;11.95;10.75;;;42.20;99.90;;;;;;5089635;28;20868;-58
2022/07/20 10:33:32;;;;;;;14.50;12.27;;;42.00;99.90;;;;;;5089850;28;20739;-57
2022/07/20 10:38:53;;;;;;;14.52;13.13;;;40.90;99.90;;;;;;5089599;28;20409;-58
2022/07/20 10:41:36;;;;;;;13.10;10.60;;;41.10;99.90;;;;;;5092426;28;20834;-59
2022/07/20 10:44:20;;;;;;;13.18;11.88;;;41.10;99.90;;;;;;5092747;28;20463;-59
2022/07/20 10:46:47;;;;;;;12.88;11.57;;;40.60;99.90;;;;;;5091843;28;20413;-58
2022/07/20 10:49:13;;;;;;;14.20;12.80;;;40.60;99.90;;;;;;5092752;28;20431;-59
2022/07/20 10:51:39;;;;;;;14.95;11.20;;;39.90;99.90;;;;;;5093138;28;20378;-59
2022/07/20 10:54:33;;;;;;;15.20;13.60;;;39.60;99.90;;;;;;5092098;28;20803;-58
2022/07/20 10:57:00;;;;;;;12.82;11.43;;;39.60;99.90;;;;;;5092502;28;20402;-60
2022/07/20 10:59:26;;;;;;;14.95;13.55;;;39.60;99.90;;;;;;5093279;28;20427;-58
2022/07/20 11:01:51;;;;;;;14.13;11.73;;;39.60;99.90;;;;;;5093037;28;20389;-58
2022/07/20 11:04:19;;;;;;;15.48;12.15;;;39.60;99.90;;;;;;5092343;28;20374;-58
2022/07/20 11:06:45;;;;;;;14.27;11.90;;;39.60;99.90;;;;;;5092953;28;20457;-59
2022/07/20 11:09:11;;;;;;;13.20;11.80;;;40.10;99.90;;;;;;5092038;28;20389;-58
2022/07/20 11:11:38;;;;;;;13.05;11.20;;;40.10;99.90;;;;;;5092768;28;20382;-58
2022/07/20 11:14:05;;;;;;;13.93;12.43;;;39.50;99.90;;;;;;5083154;28;20380;-59
2022/07/20 11:16:33;;;;;;;15.30;12.90;;;39.20;99.90;;;;;;5072546;28;20433;-58
2022/07/20 11:19:01;;;;;;;15.10;13.70;;;39.50;99.90;;;;;;5072058;28;20368;-60
2022/07/20 11:21:43;;;;;;;16.30;13.57;;;39.20;99.90;;;;;;5072457;28;20380;-58
2022/07/20 11:24:24;;;;;;;15.27;13.45;;;39.40;99.90;;;;;;5071543;28;20866;-59
2022/07/20 11:26:50;;;;;;;15.33;13.73;;;39.60;99.90;;;;;;5071844;28;20462;-58
2022/07/20 11:29:16;;;;;;;15.40;13.80;;;39.20;99.90;;;;;;5070623;28;20426;-58
2022/07/20 11:31:42;;;;;;;15.90;14.30;;;38.90;99.90;;;;;;5071314;28;20387;-58
2022/07/20 11:34:11;;;;;;;15.73;14.13;;;39.00;99.90;;;;;;5070407;28;20407;-58
2022/07/20 11:36:37;;;;;;;15.82;14.00;;;39.10;99.90;;;;;;5071469;28;20388;-58
2022/07/20 11:39:09;;;;;;;15.60;13.70;;;39.00;99.90;;;;;;5070218;28;20733;-58
2022/07/20 11:41:41;;;;;;;14.90;11.60;;;39.10;99.90;;;;;;5070854;28;20371;-58
2022/07/20 11:44:13;;;;;;;16.08;13.32;;;39.30;99.90;;;;;;5070287;28;20375;-58
2022/07/20 11:46:43;;;;;;;14.07;12.57;;;39.70;99.90;;;;;;5070908;28;20407;-57
2022/07/20 11:49:13;;;;;;;15.85;13.63;;;39.80;99.90;;;;;;5070451;28;20384;-58
2022/07/20 11:51:40;;;;;;;16.50;14.80;;;39.30;99.90;;;;;;5070842;28;20384;-57
2022/07/20 11:54:09;;;;;;;15.87;14.30;;;39.00;99.90;;;;;;5070062;28;20458;-58
2022/07/20 11:56:37;;;;;;;16.83;13.90;;;38.60;99.90;;;;;;5070871;28;20979;-57
2022/07/20 11:59:05;;;;;;;16.15;13.25;;;37.80;99.90;;;;;;5069703;28;20379;-57
2022/07/20 12:01:35;;;;;;;18.45;14.40;;;38.20;99.90;;;;;;5070603;28;20757;-57
2022/07/20 12:04:04;;;;;;;16.70;15.00;;;38.10;99.90;;;;;;5070463;28;20695;-59
2022/07/20 12:06:32;;;;;;;15.90;14.10;;;38.20;99.90;;;;;;5070672;28;20494;-57
2022/07/20 12:09:06;;;;;;;16.33;13.95;;;38.20;99.90;;;;;;5070196;28;20788;-59
2022/07/20 12:11:32;;;;;;;18.33;16.40;;;38.70;99.90;;;;;;5070790;28;20505;-57
2022/07/20 12:13:58;;;;;;;18.00;16.10;;;38.70;99.90;;;;;;5078438;28;20394;-59
2022/07/20 12:16:24;;;;;;;17.42;15.73;;;38.60;99.90;;;;;;5090109;28;20374;-57
2022/07/20 12:18:52;;;;;;;18.55;16.75;;;38.50;99.90;;;;;;5090415;28;20382;-57
2022/07/20 12:21:24;;;;;;;19.40;17.50;;;38.60;99.90;;;;;;5089862;28;20447;-58
2022/07/20 12:23:52;;;;;;;21.83;19.63;;;38.60;99.90;;;;;;5090515;28;20418;-58
2022/07/20 12:26:28;;;;;;;22.77;17.83;;;38.60;99.90;;;;;;5053324;28;1800548;-56
2022/07/20 12:28:58;;;;;;;21.38;18.30;;;38.90;99.90;;;;;;5091374;28;20394;-58
2022/07/20 12:31:26;;;;;;;22.77;18.33;;;39.00;99.90;;;;;;5090795;28;20389;-57
2022/07/20 12:34:13;;;;;;;22.03;18.30;;;38.60;99.90;;;;;;5091391;28;20378;-58
2022/07/20 12:36:45;;;;;;;23.90;18.02;;;38.30;99.90;;;;;;5091251;28;20374;-58
2022/07/20 12:39:13;;;;;;;21.00;18.80;;;38.10;99.90;;;;;;5090238;28;20383;-58
2022/07/20 12:41:40;;;;;;;26.23;18.33;;;37.80;99.90;;;;;;5091290;28;20890;-58
2022/07/20 12:44:28;;;;;;;21.73;18.92;;;37.60;99.90;;;;;;5090493;28;20381;-58
2022/07/20 12:46:56;;;;;;;21.13;18.53;;;37.80;99.90;;;;;;5091274;28;20396;-58